sensor_id;sensor_type;location;lat;lon;timestamp;P1;durP1;ratioP1;P2;durP2;ratioP2
41815;SDS011;27814;53.452;-6.180;2022-12-08T00:00:16;6.57;;;3.83;;
41815;SDS011;27814;53.452;-6.180;2022-12-08T00:02:45;8.73;;;3.80;;
41815;SDS011;27814;53.452;-6.180;2022-12-08T00:05:14;8.90;;;4.22;;
41815;SDS011;27814;53.452;-6.180;2022-12-08T00:07:59;7.88;;;3.90;;
41815;SDS011;27814;53.452;-6.180;2022-12-08T00:11:01;8.63;;;3.65;;
41815;SDS011;27814;53.452;-6.180;2022-12-08T00:13:31;8.52;;;3.45;;
41815;SDS011;27814;53.452;-6.180;2022-12-08T00:15:59;5.82;;;3.22;;
41815;SDS011;27814;53.452;-6.180;2022-12-08T00:18:28;7.28;;;3.40;;
41815;SDS011;27814;53.452;-6.180;2022-12-08T00:20:56;5.80;;;3.20;;
41815;SDS011;27814;53.452;-6.180;2022-12-08T00:23:25;8.23;;;3.30;;
41815;SDS011;27814;53.452;-6.180;2022-12-08T00:25:54;5.55;;;2.95;;
41815;SDS011;27814;53.452;-6.180;2022-12-08T00:28:23;8.32;;;3.30;;
41815;SDS011;27814;53.452;-6.180;2022-12-08T00:30:53;10.23;;;3.00;;
41815;SDS011;27814;53.452;-6.180;2022-12-08T00:33:21;6.55;;;3.10;;
41815;SDS011;27814;53.452;-6.180;2022-12-08T00:35:50;6.80;;;2.67;;
41815;SDS011;27814;53.452;-6.180;2022-12-08T00:38:18;7.63;;;3.10;;
41815;SDS011;27814;53.452;-6.180;2022-12-08T00:40:47;5.38;;;3.13;;
41815;SDS011;27814;53.452;-6.180;2022-12-08T00:43:15;6.90;;;2.72;;
41815;SDS011;27814;53.452;-6.180;2022-12-08T00:45:44;5.63;;;2.83;;
41815;SDS011;27814;53.452;-6.180;2022-12-08T00:48:17;8.23;;;3.35;;
41815;SDS011;27814;53.452;-6.180;2022-12-08T00:50:45;5.90;;;3.10;;
41815;SDS011;27814;53.452;-6.180;2022-12-08T00:53:14;4.68;;;2.88;;
41815;SDS011;27814;53.452;-6.180;2022-12-08T00:55:42;6.47;;;2.92;;
41815;SDS011;27814;53.452;-6.180;2022-12-08T00:58:12;7.65;;;2.88;;
41815;SDS011;27814;53.452;-6.180;2022-12-08T01:00:42;5.65;;;3.08;;
41815;SDS011;27814;53.452;-6.180;2022-12-08T01:03:11;6.47;;;2.80;;
41815;SDS011;27814;53.452;-6.180;2022-12-08T01:05:42;5.53;;;2.67;;
41815;SDS011;27814;53.452;-6.180;2022-12-08T01:08:10;6.25;;;3.00;;
41815;SDS011;27814;53.452;-6.180;2022-12-08T01:10:38;7.18;;;2.80;;
41815;SDS011;27814;53.452;-6.180;2022-12-08T01:13:07;6.03;;;2.92;;
41815;SDS011;27814;53.452;-6.180;2022-12-08T01:15:36;7.28;;;3.00;;
41815;SDS011;27814;53.452;-6.180;2022-12-08T01:18:05;5.97;;;2.80;;
41815;SDS011;27814;53.452;-6.180;2022-12-08T01:20:33;5.07;;;2.72;;
41815;SDS011;27814;53.452;-6.180;2022-12-08T01:23:03;5.03;;;2.85;;
41815;SDS011;27814;53.452;-6.180;2022-12-08T01:25:32;5.93;;;2.80;;
41815;SDS011;27814;53.452;-6.180;2022-12-08T01:28:01;6.53;;;2.67;;
41815;SDS011;27814;53.452;-6.180;2022-12-08T01:30:29;5.97;;;2.93;;
41815;SDS011;27814;53.452;-6.180;2022-12-08T01:33:01;8.32;;;3.20;;
41815;SDS011;27814;53.452;-6.180;2022-12-08T01:35:29;4.97;;;2.60;;
41815;SDS011;27814;53.452;-6.180;2022-12-08T01:37:57;4.17;;;2.57;;
41815;SDS011;27814;53.452;-6.180;2022-12-08T01:40:32;5.50;;;2.63;;
41815;SDS011;27814;53.452;-6.180;2022-12-08T01:43:01;6.00;;;2.55;;
41815;SDS011;27814;53.452;-6.180;2022-12-08T01:45:30;5.78;;;2.60;;
41815;SDS011;27814;53.452;-6.180;2022-12-08T01:47:59;6.95;;;2.42;;
41815;SDS011;27814;53.452;-6.180;2022-12-08T01:50:32;5.93;;;2.42;;
41815;SDS011;27814;53.452;-6.180;2022-12-08T01:53:03;5.18;;;2.55;;
41815;SDS011;27814;53.452;-6.180;2022-12-08T01:55:39;5.85;;;2.60;;
41815;SDS011;27814;53.452;-6.180;2022-12-08T01:58:10;6.60;;;3.10;;
41815;SDS011;27814;53.452;-6.180;2022-12-08T02:00:43;7.95;;;3.60;;
41815;SDS011;27814;53.452;-6.180;2022-12-08T02:03:14;7.25;;;3.50;;
41815;SDS011;27814;53.452;-6.180;2022-12-08T02:05:46;6.10;;;3.20;;
41815;SDS011;27814;53.452;-6.180;2022-12-08T02:08:15;5.97;;;2.67;;
41815;SDS011;27814;53.452;-6.180;2022-12-08T02:10:48;7.15;;;2.55;;
41815;SDS011;27814;53.452;-6.180;2022-12-08T02:13:18;6.40;;;2.72;;
41815;SDS011;27814;53.452;-6.180;2022-12-08T02:15:51;7.63;;;2.50;;
41815;SDS011;27814;53.452;-6.180;2022-12-08T02:18:31;4.43;;;2.30;;
41815;SDS011;27814;53.452;-6.180;2022-12-08T02:21:10;4.80;;;2.23;;
41815;SDS011;27814;53.452;-6.180;2022-12-08T02:23:46;5.30;;;2.20;;
41815;SDS011;27814;53.452;-6.180;2022-12-08T02:26:40;7.10;;;2.47;;
41815;SDS011;27814;53.452;-6.180;2022-12-08T02:29:37;6.30;;;2.20;;
41815;SDS011;27814;53.452;-6.180;2022-12-08T02:32:38;3.83;;;1.63;;
41815;SDS011;27814;53.452;-6.180;2022-12-08T02:35:41;5.50;;;2.30;;
41815;SDS011;27814;53.452;-6.180;2022-12-08T02:38:22;5.50;;;2.30;;
41815;SDS011;27814;53.452;-6.180;2022-12-08T02:40:58;5.32;;;2.03;;
41815;SDS011;27814;53.452;-6.180;2022-12-08T02:43:32;3.92;;;2.20;;
41815;SDS011;27814;53.452;-6.180;2022-12-08T02:46:07;5.30;;;1.92;;
41815;SDS011;27814;53.452;-6.180;2022-12-08T02:48:40;3.85;;;1.95;;
41815;SDS011;27814;53.452;-6.180;2022-12-08T02:51:11;4.05;;;1.70;;
41815;SDS011;27814;53.452;-6.180;2022-12-08T02:53:39;4.13;;;1.92;;
41815;SDS011;27814;53.452;-6.180;2022-12-08T02:56:11;5.10;;;1.80;;
41815;SDS011;27814;53.452;-6.180;2022-12-08T02:59:02;3.35;;;1.77;;
41815;SDS011;27814;53.452;-6.180;2022-12-08T03:01:52;5.97;;;2.10;;
41815;SDS011;27814;53.452;-6.180;2022-12-08T03:04:34;4.38;;;1.88;;
41815;SDS011;27814;53.452;-6.180;2022-12-08T03:07:11;3.58;;;1.83;;
41815;SDS011;27814;53.452;-6.180;2022-12-08T03:09:48;5.40;;;1.92;;
41815;SDS011;27814;53.452;-6.180;2022-12-08T03:12:23;5.45;;;2.15;;
41815;SDS011;27814;53.452;-6.180;2022-12-08T03:14:55;5.43;;;2.20;;
41815;SDS011;27814;53.452;-6.180;2022-12-08T03:17:30;4.30;;;2.00;;
41815;SDS011;27814;53.452;-6.180;2022-12-08T03:20:00;4.53;;;1.75;;
41815;SDS011;27814;53.452;-6.180;2022-12-08T03:22:34;3.30;;;1.98;;
41815;SDS011;27814;53.452;-6.180;2022-12-08T03:25:07;4.27;;;2.00;;
41815;SDS011;27814;53.452;-6.180;2022-12-08T03:27:36;4.07;;;1.80;;
41815;SDS011;27814;53.452;-6.180;2022-12-08T03:30:06;7.05;;;1.80;;
41815;SDS011;27814;53.452;-6.180;2022-12-08T03:32:36;5.00;;;1.90;;
41815;SDS011;27814;53.452;-6.180;2022-12-08T03:35:13;4.00;;;1.80;;
41815;SDS011;27814;53.452;-6.180;2022-12-08T03:38:00;4.60;;;2.13;;
41815;SDS011;27814;53.452;-6.180;2022-12-08T03:40:30;3.80;;;1.88;;
41815;SDS011;27814;53.452;-6.180;2022-12-08T03:42:58;3.92;;;1.80;;
41815;SDS011;27814;53.452;-6.180;2022-12-08T03:45:27;6.80;;;2.10;;
41815;SDS011;27814;53.452;-6.180;2022-12-08T03:47:55;5.10;;;1.90;;
41815;SDS011;27814;53.452;-6.180;2022-12-08T03:50:24;4.33;;;1.73;;
41815;SDS011;27814;53.452;-6.180;2022-12-08T03:52:56;4.47;;;1.83;;
41815;SDS011;27814;53.452;-6.180;2022-12-08T03:55:25;4.13;;;1.70;;
41815;SDS011;27814;53.452;-6.180;2022-12-08T03:57:53;4.05;;;1.45;;
41815;SDS011;27814;53.452;-6.180;2022-12-08T04:00:22;3.63;;;1.75;;
41815;SDS011;27814;53.452;-6.180;2022-12-08T04:02:50;4.75;;;1.80;;
41815;SDS011;27814;53.452;-6.180;2022-12-08T04:05:19;3.13;;;1.33;;
41815;SDS011;27814;53.452;-6.180;2022-12-08T04:07:48;4.95;;;1.67;;
41815;SDS011;27814;53.452;-6.180;2022-12-08T04:10:18;5.65;;;1.50;;
41815;SDS011;27814;53.452;-6.180;2022-12-08T04:12:46;4.80;;;1.77;;
41815;SDS011;27814;53.452;-6.180;2022-12-08T04:15:14;5.20;;;1.95;;
41815;SDS011;27814;53.452;-6.180;2022-12-08T04:17:43;5.90;;;2.05;;
41815;SDS011;27814;53.452;-6.180;2022-12-08T04:20:12;6.40;;;1.80;;
41815;SDS011;27814;53.452;-6.180;2022-12-08T04:22:40;4.50;;;1.77;;
41815;SDS011;27814;53.452;-6.180;2022-12-08T04:25:09;6.70;;;1.90;;
41815;SDS011;27814;53.452;-6.180;2022-12-08T04:27:39;6.75;;;1.80;;
41815;SDS011;27814;53.452;-6.180;2022-12-08T04:30:08;3.78;;;1.90;;
41815;SDS011;27814;53.452;-6.180;2022-12-08T04:32:37;3.47;;;1.67;;
41815;SDS011;27814;53.452;-6.180;2022-12-08T04:35:12;6.15;;;1.80;;
41815;SDS011;27814;53.452;-6.180;2022-12-08T04:37:41;5.78;;;2.05;;
41815;SDS011;27814;53.452;-6.180;2022-12-08T04:40:10;4.25;;;1.80;;
41815;SDS011;27814;53.452;-6.180;2022-12-08T04:42:41;6.22;;;1.75;;
41815;SDS011;27814;53.452;-6.180;2022-12-08T04:45:10;5.55;;;1.67;;
41815;SDS011;27814;53.452;-6.180;2022-12-08T04:47:38;5.45;;;2.00;;
41815;SDS011;27814;53.452;-6.180;2022-12-08T04:50:07;5.10;;;2.00;;
41815;SDS011;27814;53.452;-6.180;2022-12-08T04:52:36;3.63;;;1.60;;
41815;SDS011;27814;53.452;-6.180;2022-12-08T04:55:05;4.07;;;1.70;;
41815;SDS011;27814;53.452;-6.180;2022-12-08T04:57:34;4.68;;;1.80;;
41815;SDS011;27814;53.452;-6.180;2022-12-08T05:00:07;4.10;;;1.85;;
41815;SDS011;27814;53.452;-6.180;2022-12-08T05:02:36;5.57;;;1.70;;
41815;SDS011;27814;53.452;-6.180;2022-12-08T05:05:06;3.23;;;1.90;;
41815;SDS011;27814;53.452;-6.180;2022-12-08T05:07:35;3.97;;;1.80;;
41815;SDS011;27814;53.452;-6.180;2022-12-08T05:10:04;2.47;;;1.58;;
41815;SDS011;27814;53.452;-6.180;2022-12-08T05:12:35;5.17;;;1.90;;
41815;SDS011;27814;53.452;-6.180;2022-12-08T05:15:07;4.50;;;1.92;;
41815;SDS011;27814;53.452;-6.180;2022-12-08T05:17:36;4.32;;;1.83;;
41815;SDS011;27814;53.452;-6.180;2022-12-08T05:20:06;5.18;;;1.90;;
41815;SDS011;27814;53.452;-6.180;2022-12-08T05:22:35;3.95;;;1.70;;
41815;SDS011;27814;53.452;-6.180;2022-12-08T05:25:03;4.65;;;1.60;;
41815;SDS011;27814;53.452;-6.180;2022-12-08T05:27:33;3.50;;;1.67;;
41815;SDS011;27814;53.452;-6.180;2022-12-08T05:30:02;5.40;;;1.60;;
41815;SDS011;27814;53.452;-6.180;2022-12-08T05:32:34;3.80;;;1.40;;
41815;SDS011;27814;53.452;-6.180;2022-12-08T05:35:02;6.30;;;1.73;;
41815;SDS011;27814;53.452;-6.180;2022-12-08T05:37:31;5.75;;;1.50;;
41815;SDS011;27814;53.452;-6.180;2022-12-08T05:40:00;5.82;;;1.63;;
41815;SDS011;27814;53.452;-6.180;2022-12-08T05:42:29;3.92;;;1.50;;
41815;SDS011;27814;53.452;-6.180;2022-12-08T05:44:58;5.13;;;1.40;;
41815;SDS011;27814;53.452;-6.180;2022-12-08T05:47:28;5.97;;;2.00;;
41815;SDS011;27814;53.452;-6.180;2022-12-08T05:50:01;3.50;;;1.60;;
41815;SDS011;27814;53.452;-6.180;2022-12-08T05:52:30;5.40;;;1.50;;
41815;SDS011;27814;53.452;-6.180;2022-12-08T05:54:59;7.78;;;1.60;;
41815;SDS011;27814;53.452;-6.180;2022-12-08T05:57:28;2.80;;;1.42;;
41815;SDS011;27814;53.452;-6.180;2022-12-08T05:59:56;5.45;;;1.75;;
41815;SDS011;27814;53.452;-6.180;2022-12-08T06:02:30;4.75;;;1.77;;
41815;SDS011;27814;53.452;-6.180;2022-12-08T06:04:58;4.13;;;1.50;;
41815;SDS011;27814;53.452;-6.180;2022-12-08T06:07:27;4.30;;;1.60;;
41815;SDS011;27814;53.452;-6.180;2022-12-08T06:09:56;3.50;;;1.58;;
41815;SDS011;27814;53.452;-6.180;2022-12-08T06:12:24;4.75;;;1.60;;
41815;SDS011;27814;53.452;-6.180;2022-12-08T06:14:53;3.00;;;1.60;;
41815;SDS011;27814;53.452;-6.180;2022-12-08T06:17:21;5.50;;;1.77;;
41815;SDS011;27814;53.452;-6.180;2022-12-08T06:19:51;4.22;;;1.42;;
41815;SDS011;27814;53.452;-6.180;2022-12-08T06:22:20;2.63;;;1.33;;
41815;SDS011;27814;53.452;-6.180;2022-12-08T06:24:48;3.20;;;1.55;;
41815;SDS011;27814;53.452;-6.180;2022-12-08T06:27:17;6.25;;;1.75;;
41815;SDS011;27814;53.452;-6.180;2022-12-08T06:29:45;4.40;;;1.77;;
41815;SDS011;27814;53.452;-6.180;2022-12-08T06:32:15;4.32;;;1.55;;
41815;SDS011;27814;53.452;-6.180;2022-12-08T06:34:54;4.97;;;1.53;;
41815;SDS011;27814;53.452;-6.180;2022-12-08T06:37:22;3.83;;;1.33;;
41815;SDS011;27814;53.452;-6.180;2022-12-08T06:39:52;3.55;;;1.40;;
41815;SDS011;27814;53.452;-6.180;2022-12-08T06:42:20;4.03;;;1.55;;
41815;SDS011;27814;53.452;-6.180;2022-12-08T06:45:06;2.15;;;1.30;;
41815;SDS011;27814;53.452;-6.180;2022-12-08T06:47:36;6.80;;;1.45;;
41815;SDS011;27814;53.452;-6.180;2022-12-08T06:50:06;5.30;;;1.50;;
41815;SDS011;27814;53.452;-6.180;2022-12-08T06:52:36;2.65;;;1.52;;
41815;SDS011;27814;53.452;-6.180;2022-12-08T06:55:21;3.60;;;1.20;;
41815;SDS011;27814;53.452;-6.180;2022-12-08T06:58:09;3.97;;;1.60;;
41815;SDS011;27814;53.452;-6.180;2022-12-08T07:00:38;3.47;;;1.50;;
41815;SDS011;27814;53.452;-6.180;2022-12-08T07:03:08;3.42;;;1.20;;
41815;SDS011;27814;53.452;-6.180;2022-12-08T07:05:42;3.33;;;1.55;;
41815;SDS011;27814;53.452;-6.180;2022-12-08T07:08:10;3.30;;;1.65;;
41815;SDS011;27814;53.452;-6.180;2022-12-08T07:10:39;3.35;;;1.38;;
41815;SDS011;27814;53.452;-6.180;2022-12-08T07:13:07;5.07;;;1.67;;
41815;SDS011;27814;53.452;-6.180;2022-12-08T07:15:36;3.22;;;1.80;;
41815;SDS011;27814;53.452;-6.180;2022-12-08T07:18:04;5.93;;;1.80;;
41815;SDS011;27814;53.452;-6.180;2022-12-08T07:20:33;5.10;;;1.83;;
41815;SDS011;27814;53.452;-6.180;2022-12-08T07:23:03;2.97;;;1.67;;
41815;SDS011;27814;53.452;-6.180;2022-12-08T07:25:32;3.07;;;1.50;;
41815;SDS011;27814;53.452;-6.180;2022-12-08T07:28:00;2.88;;;1.60;;
41815;SDS011;27814;53.452;-6.180;2022-12-08T07:30:33;3.70;;;1.70;;
41815;SDS011;27814;53.452;-6.180;2022-12-08T07:33:02;3.60;;;1.75;;
41815;SDS011;27814;53.452;-6.180;2022-12-08T07:35:35;6.97;;;1.90;;
41815;SDS011;27814;53.452;-6.180;2022-12-08T07:38:05;5.25;;;1.88;;
41815;SDS011;27814;53.452;-6.180;2022-12-08T07:40:37;4.22;;;1.85;;
41815;SDS011;27814;53.452;-6.180;2022-12-08T07:43:06;4.07;;;1.98;;
41815;SDS011;27814;53.452;-6.180;2022-12-08T07:45:35;3.88;;;1.98;;
41815;SDS011;27814;53.452;-6.180;2022-12-08T07:48:05;3.60;;;1.73;;
41815;SDS011;27814;53.452;-6.180;2022-12-08T07:50:34;3.25;;;1.80;;
41815;SDS011;27814;53.452;-6.180;2022-12-08T07:53:02;5.38;;;2.00;;
41815;SDS011;27814;53.452;-6.180;2022-12-08T07:55:33;3.80;;;1.80;;
41815;SDS011;27814;53.452;-6.180;2022-12-08T07:58:01;7.20;;;2.08;;
41815;SDS011;27814;53.452;-6.180;2022-12-08T08:00:33;4.70;;;2.00;;
41815;SDS011;27814;53.452;-6.180;2022-12-08T08:03:02;3.88;;;2.03;;
41815;SDS011;27814;53.452;-6.180;2022-12-08T08:05:34;4.80;;;2.23;;
41815;SDS011;27814;53.452;-6.180;2022-12-08T08:08:03;4.63;;;2.50;;
41815;SDS011;27814;53.452;-6.180;2022-12-08T08:10:33;6.78;;;2.47;;
41815;SDS011;27814;53.452;-6.180;2022-12-08T08:13:03;5.68;;;2.08;;
41815;SDS011;27814;53.452;-6.180;2022-12-08T08:15:32;5.63;;;2.17;;
41815;SDS011;27814;53.452;-6.180;2022-12-08T08:18:01;4.68;;;2.15;;
41815;SDS011;27814;53.452;-6.180;2022-12-08T08:20:29;4.03;;;2.40;;
41815;SDS011;27814;53.452;-6.180;2022-12-08T08:22:59;7.22;;;2.20;;
41815;SDS011;27814;53.452;-6.180;2022-12-08T08:25:30;2.97;;;1.80;;
41815;SDS011;27814;53.452;-6.180;2022-12-08T08:28:01;7.93;;;2.38;;
41815;SDS011;27814;53.452;-6.180;2022-12-08T08:30:30;3.95;;;2.10;;
41815;SDS011;27814;53.452;-6.180;2022-12-08T08:32:59;5.63;;;2.47;;
41815;SDS011;27814;53.452;-6.180;2022-12-08T08:35:27;4.27;;;2.30;;
41815;SDS011;27814;53.452;-6.180;2022-12-08T08:37:56;6.13;;;2.55;;
41815;SDS011;27814;53.452;-6.180;2022-12-08T08:40:25;5.55;;;2.40;;
41815;SDS011;27814;53.452;-6.180;2022-12-08T08:42:55;7.30;;;2.63;;
41815;SDS011;27814;53.452;-6.180;2022-12-08T08:45:24;4.90;;;2.38;;
41815;SDS011;27814;53.452;-6.180;2022-12-08T08:47:52;3.80;;;1.98;;
41815;SDS011;27814;53.452;-6.180;2022-12-08T08:50:22;5.28;;;2.03;;
41815;SDS011;27814;53.452;-6.180;2022-12-08T08:52:51;3.78;;;1.90;;
41815;SDS011;27814;53.452;-6.180;2022-12-08T08:55:20;5.88;;;2.42;;
41815;SDS011;27814;53.452;-6.180;2022-12-08T08:57:50;4.95;;;2.15;;
41815;SDS011;27814;53.452;-6.180;2022-12-08T09:00:20;5.00;;;1.60;;
41815;SDS011;27814;53.452;-6.180;2022-12-08T09:02:48;5.00;;;2.08;;
41815;SDS011;27814;53.452;-6.180;2022-12-08T09:05:17;3.22;;;1.83;;
41815;SDS011;27814;53.452;-6.180;2022-12-08T09:07:47;4.68;;;2.00;;
41815;SDS011;27814;53.452;-6.180;2022-12-08T09:10:15;6.57;;;2.30;;
41815;SDS011;27814;53.452;-6.180;2022-12-08T09:12:44;4.35;;;2.10;;
41815;SDS011;27814;53.452;-6.180;2022-12-08T09:15:12;3.40;;;1.80;;
41815;SDS011;27814;53.452;-6.180;2022-12-08T09:17:48;5.70;;;2.00;;
41815;SDS011;27814;53.452;-6.180;2022-12-08T09:20:16;3.53;;;1.90;;
41815;SDS011;27814;53.452;-6.180;2022-12-08T09:22:45;4.63;;;2.35;;
41815;SDS011;27814;53.452;-6.180;2022-12-08T09:25:18;6.07;;;2.20;;
41815;SDS011;27814;53.452;-6.180;2022-12-08T09:27:47;4.15;;;2.00;;
41815;SDS011;27814;53.452;-6.180;2022-12-08T09:30:17;4.78;;;2.20;;
41815;SDS011;27814;53.452;-6.180;2022-12-08T09:32:45;4.57;;;2.17;;
41815;SDS011;27814;53.452;-6.180;2022-12-08T09:35:15;5.47;;;2.53;;
41815;SDS011;27814;53.452;-6.180;2022-12-08T09:37:45;4.43;;;2.20;;
41815;SDS011;27814;53.452;-6.180;2022-12-08T09:40:14;5.77;;;2.00;;
41815;SDS011;27814;53.452;-6.180;2022-12-08T09:42:47;3.72;;;1.95;;
41815;SDS011;27814;53.452;-6.180;2022-12-08T09:45:18;5.93;;;2.67;;
41815;SDS011;27814;53.452;-6.180;2022-12-08T09:47:55;4.18;;;2.20;;
41815;SDS011;27814;53.452;-6.180;2022-12-08T09:50:28;3.28;;;1.98;;
41815;SDS011;27814;53.452;-6.180;2022-12-08T09:53:02;3.47;;;1.67;;
41815;SDS011;27814;53.452;-6.180;2022-12-08T09:55:37;4.72;;;1.75;;
41815;SDS011;27814;53.452;-6.180;2022-12-08T09:58:12;5.33;;;2.20;;
41815;SDS011;27814;53.452;-6.180;2022-12-08T10:00:47;4.65;;;2.00;;
41815;SDS011;27814;53.452;-6.180;2022-12-08T10:03:17;3.45;;;2.15;;
41815;SDS011;27814;53.452;-6.180;2022-12-08T10:05:48;4.53;;;1.90;;
41815;SDS011;27814;53.452;-6.180;2022-12-08T10:08:24;3.40;;;2.00;;
41815;SDS011;27814;53.452;-6.180;2022-12-08T10:10:57;3.03;;;1.73;;
41815;SDS011;27814;53.452;-6.180;2022-12-08T10:13:32;3.20;;;1.60;;
41815;SDS011;27814;53.452;-6.180;2022-12-08T10:16:07;3.22;;;1.80;;
41815;SDS011;27814;53.452;-6.180;2022-12-08T10:18:56;4.63;;;1.70;;
41815;SDS011;27814;53.452;-6.180;2022-12-08T10:21:31;4.72;;;1.50;;
41815;SDS011;27814;53.452;-6.180;2022-12-08T10:24:03;3.20;;;1.40;;
41815;SDS011;27814;53.452;-6.180;2022-12-08T10:26:39;4.90;;;1.70;;
41815;SDS011;27814;53.452;-6.180;2022-12-08T10:29:08;4.47;;;1.83;;
41815;SDS011;27814;53.452;-6.180;2022-12-08T10:31:39;3.60;;;1.75;;
41815;SDS011;27814;53.452;-6.180;2022-12-08T10:34:19;5.63;;;2.08;;
41815;SDS011;27814;53.452;-6.180;2022-12-08T10:36:50;5.07;;;1.80;;
41815;SDS011;27814;53.452;-6.180;2022-12-08T10:39:29;4.82;;;1.63;;
41815;SDS011;27814;53.452;-6.180;2022-12-08T10:42:02;4.07;;;2.00;;
41815;SDS011;27814;53.452;-6.180;2022-12-08T10:44:52;4.85;;;1.85;;
41815;SDS011;27814;53.452;-6.180;2022-12-08T10:47:25;5.20;;;2.23;;
41815;SDS011;27814;53.452;-6.180;2022-12-08T10:50:07;4.05;;;2.00;;
41815;SDS011;27814;53.452;-6.180;2022-12-08T10:52:44;4.93;;;2.22;;
41815;SDS011;27814;53.452;-6.180;2022-12-08T10:55:13;5.50;;;2.00;;
41815;SDS011;27814;53.452;-6.180;2022-12-08T10:57:43;8.40;;;2.50;;
41815;SDS011;27814;53.452;-6.180;2022-12-08T11:00:15;6.47;;;2.25;;
41815;SDS011;27814;53.452;-6.180;2022-12-08T11:02:58;6.80;;;2.13;;
41815;SDS011;27814;53.452;-6.180;2022-12-08T11:05:30;4.00;;;1.70;;
41815;SDS011;27814;53.452;-6.180;2022-12-08T11:08:00;4.72;;;1.70;;
41815;SDS011;27814;53.452;-6.180;2022-12-08T11:10:33;5.07;;;2.22;;
41815;SDS011;27814;53.452;-6.180;2022-12-08T11:13:04;4.43;;;1.75;;
41815;SDS011;27814;53.452;-6.180;2022-12-08T11:15:40;5.00;;;1.90;;
41815;SDS011;27814;53.452;-6.180;2022-12-08T11:18:20;4.00;;;1.80;;
41815;SDS011;27814;53.452;-6.180;2022-12-08T11:21:00;4.47;;;1.90;;
41815;SDS011;27814;53.452;-6.180;2022-12-08T11:23:33;3.60;;;1.70;;
41815;SDS011;27814;53.452;-6.180;2022-12-08T11:26:05;4.32;;;1.77;;
41815;SDS011;27814;53.452;-6.180;2022-12-08T11:28:42;4.75;;;1.70;;
41815;SDS011;27814;53.452;-6.180;2022-12-08T11:31:14;4.22;;;1.70;;
41815;SDS011;27814;53.452;-6.180;2022-12-08T11:33:49;3.67;;;1.80;;
41815;SDS011;27814;53.452;-6.180;2022-12-08T11:36:21;3.95;;;1.85;;
41815;SDS011;27814;53.452;-6.180;2022-12-08T11:38:54;4.13;;;1.80;;
41815;SDS011;27814;53.452;-6.180;2022-12-08T11:41:26;4.00;;;1.95;;
41815;SDS011;27814;53.452;-6.180;2022-12-08T11:44:00;4.90;;;2.45;;
41815;SDS011;27814;53.452;-6.180;2022-12-08T11:46:33;4.70;;;1.90;;
41815;SDS011;27814;53.452;-6.180;2022-12-08T11:49:07;3.33;;;1.80;;
41815;SDS011;27814;53.452;-6.180;2022-12-08T11:51:42;3.13;;;1.60;;
41815;SDS011;27814;53.452;-6.180;2022-12-08T11:54:17;4.70;;;1.92;;
41815;SDS011;27814;53.452;-6.180;2022-12-08T11:56:50;3.33;;;2.00;;
41815;SDS011;27814;53.452;-6.180;2022-12-08T11:59:23;2.67;;;1.57;;
41815;SDS011;27814;53.452;-6.180;2022-12-08T12:01:55;2.95;;;1.83;;
41815;SDS011;27814;53.452;-6.180;2022-12-08T12:04:28;3.35;;;2.05;;
41815;SDS011;27814;53.452;-6.180;2022-12-08T12:13:09;5.28;;;1.88;;
41815;SDS011;27814;53.452;-6.180;2022-12-08T12:18:57;4.88;;;2.20;;
41815;SDS011;27814;53.452;-6.180;2022-12-08T12:21:30;5.55;;;2.13;;
41815;SDS011;27814;53.452;-6.180;2022-12-08T12:24:08;3.95;;;2.10;;
41815;SDS011;27814;53.452;-6.180;2022-12-08T12:26:53;5.05;;;2.20;;
41815;SDS011;27814;53.452;-6.180;2022-12-08T12:29:30;3.67;;;2.00;;
41815;SDS011;27814;53.452;-6.180;2022-12-08T12:32:01;5.53;;;2.10;;
41815;SDS011;27814;53.452;-6.180;2022-12-08T12:34:34;3.78;;;2.20;;
41815;SDS011;27814;53.452;-6.180;2022-12-08T12:37:06;3.47;;;2.00;;
41815;SDS011;27814;53.452;-6.180;2022-12-08T12:39:46;4.82;;;2.40;;
41815;SDS011;27814;53.452;-6.180;2022-12-08T12:42:37;5.68;;;2.55;;
41815;SDS011;27814;53.452;-6.180;2022-12-08T12:45:22;3.55;;;2.13;;
41815;SDS011;27814;53.452;-6.180;2022-12-08T12:50:48;4.63;;;2.10;;
41815;SDS011;27814;53.452;-6.180;2022-12-08T13:02:25;5.10;;;2.40;;
41815;SDS011;27814;53.452;-6.180;2022-12-08T13:04:57;3.65;;;1.63;;
41815;SDS011;27814;53.452;-6.180;2022-12-08T13:07:29;2.53;;;1.40;;
41815;SDS011;27814;53.452;-6.180;2022-12-08T13:10:02;3.90;;;1.00;;
41815;SDS011;27814;53.452;-6.180;2022-12-08T13:12:38;3.20;;;1.10;;
41815;SDS011;27814;53.452;-6.180;2022-12-08T13:15:14;1.88;;;0.80;;
41815;SDS011;27814;53.452;-6.180;2022-12-08T13:17:48;3.70;;;0.90;;
41815;SDS011;27814;53.452;-6.180;2022-12-08T13:20:18;2.22;;;1.00;;
41815;SDS011;27814;53.452;-6.180;2022-12-08T13:25:53;3.58;;;0.98;;
41815;SDS011;27814;53.452;-6.180;2022-12-08T13:29:16;2.90;;;1.03;;
41815;SDS011;27814;53.452;-6.180;2022-12-08T13:31:47;5.03;;;1.10;;
41815;SDS011;27814;53.452;-6.180;2022-12-08T13:34:23;1.55;;;1.00;;
41815;SDS011;27814;53.452;-6.180;2022-12-08T13:37:00;2.65;;;1.27;;
41815;SDS011;27814;53.452;-6.180;2022-12-08T13:39:39;3.88;;;1.30;;
41815;SDS011;27814;53.452;-6.180;2022-12-08T13:42:13;1.88;;;1.25;;
41815;SDS011;27814;53.452;-6.180;2022-12-08T13:44:47;2.65;;;1.40;;
41815;SDS011;27814;53.452;-6.180;2022-12-08T13:47:41;1.38;;;0.80;;
41815;SDS011;27814;53.452;-6.180;2022-12-08T13:50:42;2.35;;;0.93;;
41815;SDS011;27814;53.452;-6.180;2022-12-08T13:53:34;2.95;;;1.00;;
41815;SDS011;27814;53.452;-6.180;2022-12-08T13:56:25;1.77;;;1.10;;
41815;SDS011;27814;53.452;-6.180;2022-12-08T13:59:23;1.92;;;1.10;;
41815;SDS011;27814;53.452;-6.180;2022-12-08T14:01:56;3.20;;;1.20;;
41815;SDS011;27814;53.452;-6.180;2022-12-08T14:04:27;2.10;;;1.20;;
41815;SDS011;27814;53.452;-6.180;2022-12-08T14:07:17;2.30;;;0.60;;
41815;SDS011;27814;53.452;-6.180;2022-12-08T14:09:46;2.08;;;0.90;;
41815;SDS011;27814;53.452;-6.180;2022-12-08T14:12:16;2.00;;;0.95;;
41815;SDS011;27814;53.452;-6.180;2022-12-08T14:14:47;3.83;;;1.35;;
41815;SDS011;27814;53.452;-6.180;2022-12-08T14:17:29;2.25;;;1.10;;
41815;SDS011;27814;53.452;-6.180;2022-12-08T14:19:58;3.53;;;1.50;;
41815;SDS011;27814;53.452;-6.180;2022-12-08T14:22:32;3.13;;;1.25;;
41815;SDS011;27814;53.452;-6.180;2022-12-08T14:25:02;3.03;;;1.00;;
41815;SDS011;27814;53.452;-6.180;2022-12-08T14:27:32;2.58;;;1.20;;
41815;SDS011;27814;53.452;-6.180;2022-12-08T14:30:04;2.35;;;1.00;;
41815;SDS011;27814;53.452;-6.180;2022-12-08T14:32:35;3.33;;;1.42;;
41815;SDS011;27814;53.452;-6.180;2022-12-08T14:35:17;4.85;;;1.40;;
41815;SDS011;27814;53.452;-6.180;2022-12-08T14:37:50;3.90;;;1.20;;
41815;SDS011;27814;53.452;-6.180;2022-12-08T14:40:22;1.60;;;1.08;;
41815;SDS011;27814;53.452;-6.180;2022-12-08T14:43:09;3.58;;;1.40;;
41815;SDS011;27814;53.452;-6.180;2022-12-08T14:45:48;5.07;;;1.05;;
41815;SDS011;27814;53.452;-6.180;2022-12-08T14:48:22;2.83;;;1.05;;
41815;SDS011;27814;53.452;-6.180;2022-12-08T14:50:54;2.63;;;1.20;;
41815;SDS011;27814;53.452;-6.180;2022-12-08T14:53:30;4.20;;;1.30;;
41815;SDS011;27814;53.452;-6.180;2022-12-08T14:56:06;3.80;;;1.10;;
41815;SDS011;27814;53.452;-6.180;2022-12-08T14:58:41;2.78;;;1.13;;
41815;SDS011;27814;53.452;-6.180;2022-12-08T15:01:11;2.33;;;1.00;;
41815;SDS011;27814;53.452;-6.180;2022-12-08T15:03:43;3.20;;;1.00;;
41815;SDS011;27814;53.452;-6.180;2022-12-08T15:06:17;2.72;;;0.95;;
41815;SDS011;27814;53.452;-6.180;2022-12-08T15:08:54;1.92;;;0.80;;
41815;SDS011;27814;53.452;-6.180;2022-12-08T15:11:28;4.18;;;0.77;;
41815;SDS011;27814;53.452;-6.180;2022-12-08T15:13:58;5.85;;;1.30;;
41815;SDS011;27814;53.452;-6.180;2022-12-08T15:16:28;3.53;;;0.88;;
41815;SDS011;27814;53.452;-6.180;2022-12-08T15:19:05;3.45;;;1.20;;
41815;SDS011;27814;53.452;-6.180;2022-12-08T15:21:45;3.25;;;0.90;;
41815;SDS011;27814;53.452;-6.180;2022-12-08T15:24:17;2.72;;;0.80;;
41815;SDS011;27814;53.452;-6.180;2022-12-08T15:26:46;2.92;;;1.00;;
41815;SDS011;27814;53.452;-6.180;2022-12-08T15:29:18;2.13;;;1.00;;